VIA022 SVMI-MMSM
Flight info
| Callsign | VIA022 |
|---|---|
| Flight time | 4h 45m |
| Altitude | 36000 |
| Route | MARES1 MARES A315 ATONO UW1 CRO UM787 LOKUR DCT OPTAS DCT MAGTA UL795 SENSO UL674 BIKOG DCT NALRO UR640 MAMBI UL577 CZM UJ9 CZA UT20 PAZ DCT VITOS VITOS1R |
| Aircraft | A333/H-SDE3GHIJ2J3J5M1RVWXY/LB2D1 |
Departure
| Time | 2026-04-24 14:38 |
|---|---|
| Airport | Maiquetía Simón Bolívar International Airport (SVMI) |
Arrival
| Time | 2026-04-24 19:23 |
|---|---|
| Airport | Felipe Ángeles International Airport (MMSM) |
| Time | Latitude | Longitude | Altitude | Speed | Heading |
|---|---|---|---|---|---|
| 2026-04-24 14:00 | 10.59847 | -67.00590 | 309 ft | 0 kts | 177° |
| 2026-04-24 14:05 | 10.59848 | -67.00590 | 309 ft | 0 kts | 177° |
| 2026-04-24 14:27 | 10.59849 | -67.00590 | 310 ft | 0 kts | 178° |
| 2026-04-24 14:27 | 10.59863 | -67.00590 | 310 ft | 2 kts | 181° |
| 2026-04-24 14:27 | 10.59878 | -67.00590 | 309 ft | 2 kts | 177° |
| 2026-04-24 14:27 | 10.59893 | -67.00590 | 309 ft | 2 kts | 200° |
| 2026-04-24 14:28 | 10.59906 | -67.00582 | 309 ft | 2 kts | 229° |
| 2026-04-24 14:28 | 10.59914 | -67.00569 | 309 ft | 2 kts | 255° |
| 2026-04-24 14:28 | 10.59915 | -67.00556 | 309 ft | 1 kts | 250° |
| 2026-04-24 14:28 | 10.59922 | -67.00549 | 309 ft | 1 kts | 190° |
| 2026-04-24 14:29 | 10.59937 | -67.00546 | 309 ft | 2 kts | 188° |
| 2026-04-24 14:29 | 10.59952 | -67.00544 | 309 ft | 2 kts | 193° |
| 2026-04-24 14:29 | 10.59967 | -67.00540 | 309 ft | 2 kts | 193° |
| 2026-04-24 14:29 | 10.59981 | -67.00537 | 309 ft | 2 kts | 192° |
| 2026-04-24 14:30 | 10.59993 | -67.00533 | 309 ft | 1 kts | 232° |
| 2026-04-24 14:30 | 10.59996 | -67.00525 | 309 ft | 1 kts | 269° |
| 2026-04-24 14:30 | 10.59996 | -67.00521 | 309 ft | 0 kts | 267° |
| 2026-04-24 14:31 | 10.59996 | -67.00522 | 309 ft | 0 kts | 267° |
| 2026-04-24 14:32 | 10.59996 | -67.00524 | 309 ft | 0 kts | 268° |
| 2026-04-24 14:32 | 10.59994 | -67.00562 | 308 ft | 8 kts | 266° |
| 2026-04-24 14:32 | 10.59990 | -67.00638 | 307 ft | 12 kts | 268° |
| 2026-04-24 14:33 | 10.59987 | -67.00736 | 305 ft | 15 kts | 268° |
| 2026-04-24 14:33 | 10.59983 | -67.00857 | 302 ft | 18 kts | 268° |
| 2026-04-24 14:33 | 10.59979 | -67.00980 | 299 ft | 16 kts | 268° |
| 2026-04-24 14:33 | 10.59976 | -67.01102 | 295 ft | 18 kts | 269° |
| 2026-04-24 14:34 | 10.59975 | -67.01207 | 290 ft | 15 kts | 284° |
| 2026-04-24 14:34 | 10.60074 | -67.01250 | 289 ft | 17 kts | 357° |
| 2026-04-24 14:34 | 10.60176 | -67.01254 | 290 ft | 13 kts | 358° |
| 2026-04-24 14:34 | 10.60241 | -67.01257 | 290 ft | 0 kts | 358° |
| 2026-04-24 14:36 | 10.60253 | -67.01258 | 290 ft | 4 kts | 357° |
| 2026-04-24 14:36 | 10.60305 | -67.01260 | 291 ft | 10 kts | 357° |
| 2026-04-24 14:36 | 10.60370 | -67.01225 | 292 ft | 12 kts | 71° |
| 2026-04-24 14:36 | 10.60377 | -67.01185 | 294 ft | 0 kts | 84° |
| 2026-04-24 14:37 | 10.60379 | -67.01157 | 295 ft | 22 kts | 87° |
| 2026-04-24 14:37 | 10.60392 | -67.00755 | 306 ft | 89 kts | 88° |
| 2026-04-24 14:37 | 10.60419 | -66.99899 | 296 ft | 152 kts | 88° |
| 2026-04-24 14:38 | 10.60451 | -66.98669 | 447 ft | 187 kts | 90° |
| 2026-04-24 14:38 | 10.60479 | -66.97437 | 1124 ft | 165 kts | 81° |
| 2026-04-24 14:38 | 10.61015 | -66.96487 | 1559 ft | 158 kts | 33° |
| 2026-04-24 14:38 | 10.62150 | -66.96240 | 1927 ft | 185 kts | 346° |
| 2026-04-24 14:39 | 10.63183 | -66.96949 | 2591 ft | 187 kts | 302° |
| 2026-04-24 14:39 | 10.63616 | -66.98221 | 3023 ft | 197 kts | 281° |
| 2026-04-24 14:39 | 10.63866 | -66.99657 | 3225 ft | 211 kts | 281° |
| 2026-04-24 14:39 | 10.64113 | -67.01111 | 3704 ft | 208 kts | 281° |
| 2026-04-24 14:40 | 10.64358 | -67.02553 | 4163 ft | 206 kts | 279° |
| 2026-04-24 14:40 | 10.64759 | -67.03915 | 4615 ft | 202 kts | 293° |
| 2026-04-24 14:40 | 10.65256 | -67.05236 | 5078 ft | 199 kts | 291° |
| 2026-04-24 14:40 | 10.65747 | -67.06549 | 5532 ft | 195 kts | 291° |
| 2026-04-24 14:41 | 10.66226 | -67.07816 | 5975 ft | 190 kts | 291° |
| 2026-04-24 14:41 | 10.66693 | -67.09050 | 6401 ft | 185 kts | 291° |
| 2026-04-24 14:41 | 10.67125 | -67.10254 | 6787 ft | 181 kts | 289° |
| 2026-04-24 14:41 | 10.67584 | -67.11488 | 6901 ft | 196 kts | 294° |
| 2026-04-24 14:42 | 10.68169 | -67.12839 | 6889 ft | 218 kts | 292° |
| 2026-04-24 14:42 | 10.68686 | -67.14270 | 7369 ft | 214 kts | 291° |
| 2026-04-24 14:42 | 10.69225 | -67.15702 | 7711 ft | 221 kts | 291° |
| 2026-04-24 14:42 | 10.69785 | -67.17184 | 8112 ft | 228 kts | 291° |
| 2026-04-24 14:43 | 10.70357 | -67.18695 | 8493 ft | 236 kts | 291° |
| 2026-04-24 14:43 | 10.70966 | -67.20301 | 8799 ft | 247 kts | 291° |
| 2026-04-24 14:43 | 10.71599 | -67.21967 | 9102 ft | 259 kts | 292° |
| 2026-04-24 14:43 | 10.72257 | -67.23700 | 9414 ft | 270 kts | 291° |
| 2026-04-24 14:44 | 10.72950 | -67.25528 | 9737 ft | 282 kts | 291° |
| 2026-04-24 14:44 | 10.73671 | -67.27428 | 10037 ft | 294 kts | 291° |
| 2026-04-24 14:44 | 10.74417 | -67.29397 | 10303 ft | 305 kts | 291° |
| 2026-04-24 14:44 | 10.75197 | -67.31452 | 10447 ft | 322 kts | 291° |
| 2026-04-24 14:45 | 10.76026 | -67.33639 | 10597 ft | 338 kts | 291° |
| 2026-04-24 14:45 | 10.76892 | -67.35926 | 10782 ft | 353 kts | 291° |
| 2026-04-24 14:45 | 10.77788 | -67.38293 | 11134 ft | 358 kts | 291° |
| 2026-04-24 14:45 | 10.78680 | -67.40647 | 11676 ft | 360 kts | 291° |
| 2026-04-24 14:46 | 10.79578 | -67.43018 | 12135 ft | 362 kts | 291° |
| 2026-04-24 14:46 | 10.80482 | -67.45403 | 12611 ft | 364 kts | 291° |
| 2026-04-24 14:46 | 10.81396 | -67.47814 | 13044 ft | 367 kts | 291° |
| 2026-04-24 14:46 | 10.82315 | -67.50242 | 13485 ft | 369 kts | 291° |
| 2026-04-24 14:47 | 10.83241 | -67.52689 | 13878 ft | 373 kts | 291° |
| 2026-04-24 14:47 | 10.84179 | -67.55168 | 14286 ft | 376 kts | 291° |
| 2026-04-24 14:47 | 10.85117 | -67.57649 | 14687 ft | 378 kts | 290° |
| 2026-04-24 14:47 | 10.86058 | -67.60140 | 15017 ft | 382 kts | 290° |
| 2026-04-24 14:48 | 10.87021 | -67.62689 | 15370 ft | 385 kts | 290° |
| 2026-04-24 14:48 | 10.87974 | -67.65211 | 15716 ft | 388 kts | 290° |
| 2026-04-24 14:48 | 10.88942 | -67.67775 | 16078 ft | 391 kts | 290° |
| 2026-04-24 14:48 | 10.89924 | -67.70376 | 16434 ft | 394 kts | 290° |
| 2026-04-24 14:49 | 10.90905 | -67.72977 | 16786 ft | 396 kts | 290° |
| 2026-04-24 14:49 | 10.91900 | -67.75613 | 17095 ft | 399 kts | 290° |
| 2026-04-24 14:49 | 10.92890 | -67.78237 | 17396 ft | 402 kts | 290° |
| 2026-04-24 14:49 | 10.93894 | -67.80901 | 17785 ft | 403 kts | 290° |
| 2026-04-24 14:50 | 10.94898 | -67.83565 | 18122 ft | 405 kts | 290° |
| 2026-04-24 14:50 | 10.95900 | -67.86223 | 18424 ft | 407 kts | 290° |
| 2026-04-24 14:50 | 10.96916 | -67.88919 | 18763 ft | 409 kts | 290° |
| 2026-04-24 14:50 | 10.97946 | -67.91654 | 19071 ft | 411 kts | 290° |
| 2026-04-24 14:51 | 10.98967 | -67.94366 | 19391 ft | 413 kts | 290° |
| 2026-04-24 14:51 | 10.99997 | -67.97103 | 19720 ft | 414 kts | 290° |
| 2026-04-24 14:51 | 11.01015 | -67.99809 | 20024 ft | 415 kts | 290° |
| 2026-04-24 14:51 | 11.02053 | -68.02567 | 20325 ft | 417 kts | 290° |
| 2026-04-24 14:52 | 11.03097 | -68.05344 | 20612 ft | 418 kts | 290° |
| 2026-04-24 14:52 | 11.04137 | -68.08109 | 20894 ft | 420 kts | 290° |
| 2026-04-24 14:52 | 11.05175 | -68.10870 | 21159 ft | 421 kts | 290° |
| 2026-04-24 14:52 | 11.06222 | -68.13659 | 21417 ft | 422 kts | 290° |
| 2026-04-24 14:53 | 11.07269 | -68.16446 | 21657 ft | 424 kts | 290° |
| 2026-04-24 14:53 | 11.08314 | -68.19231 | 21892 ft | 426 kts | 290° |
| 2026-04-24 14:53 | 11.09385 | -68.22084 | 22130 ft | 428 kts | 290° |
| 2026-04-24 14:53 | 11.10440 | -68.24897 | 22360 ft | 429 kts | 290° |
| 2026-04-24 14:54 | 11.11506 | -68.27737 | 22612 ft | 430 kts | 290° |
| 2026-04-24 14:54 | 11.12580 | -68.30601 | 22842 ft | 432 kts | 290° |
| 2026-04-24 14:54 | 11.13652 | -68.33461 | 23062 ft | 433 kts | 290° |
| 2026-04-24 14:54 | 11.14732 | -68.36341 | 23296 ft | 435 kts | 290° |
| 2026-04-24 14:55 | 11.15803 | -68.39203 | 23533 ft | 436 kts | 290° |
| 2026-04-24 14:55 | 11.16818 | -68.42086 | 23752 ft | 436 kts | 284° |
| 2026-04-24 14:55 | 11.17409 | -68.45108 | 23952 ft | 437 kts | 279° |
| 2026-04-24 14:55 | 11.17998 | -68.48169 | 24220 ft | 437 kts | 280° |
| 2026-04-24 14:56 | 11.18580 | -68.51205 | 24450 ft | 438 kts | 280° |
| 2026-04-24 14:56 | 11.19167 | -68.54253 | 24677 ft | 440 kts | 280° |
| 2026-04-24 14:56 | 11.19749 | -68.57281 | 24886 ft | 441 kts | 280° |
| 2026-04-24 14:56 | 11.20347 | -68.60383 | 25096 ft | 443 kts | 280° |
| 2026-04-24 14:57 | 11.20940 | -68.63466 | 25307 ft | 444 kts | 280° |
| 2026-04-24 14:57 | 11.21531 | -68.66540 | 25510 ft | 445 kts | 279° |
| 2026-04-24 14:57 | 11.22130 | -68.69654 | 25716 ft | 447 kts | 279° |
| 2026-04-24 14:57 | 11.22723 | -68.72742 | 25917 ft | 448 kts | 279° |
| 2026-04-24 14:58 | 11.23324 | -68.75868 | 26151 ft | 449 kts | 279° |
| 2026-04-24 14:58 | 11.23922 | -68.78988 | 26381 ft | 450 kts | 279° |
| 2026-04-24 14:58 | 11.24520 | -68.82106 | 26615 ft | 450 kts | 279° |
| 2026-04-24 14:58 | 11.25121 | -68.85241 | 26826 ft | 451 kts | 279° |
| 2026-04-24 14:59 | 11.25718 | -68.88359 | 27001 ft | 453 kts | 279° |
| 2026-04-24 14:59 | 11.26323 | -68.91522 | 27188 ft | 454 kts | 279° |
| 2026-04-24 14:59 | 11.26923 | -68.94657 | 27394 ft | 455 kts | 279° |
| 2026-04-24 14:59 | 11.27531 | -68.97835 | 27587 ft | 457 kts | 279° |
| 2026-04-24 15:00 | 11.28135 | -69.00996 | 27783 ft | 458 kts | 279° |
| 2026-04-24 15:00 | 11.28741 | -69.04170 | 28031 ft | 458 kts | 279° |
| 2026-04-24 15:00 | 11.29354 | -69.07381 | 28303 ft | 458 kts | 279° |
| 2026-04-24 15:00 | 11.29955 | -69.10532 | 28609 ft | 456 kts | 279° |
| 2026-04-24 15:01 | 11.30564 | -69.13724 | 28930 ft | 455 kts | 279° |
| 2026-04-24 15:01 | 11.31166 | -69.16886 | 29237 ft | 455 kts | 279° |
| 2026-04-24 15:01 | 11.31711 | -69.19750 | 29503 ft | 454 kts | 279° |
| 2026-04-24 15:01 | 11.32312 | -69.22907 | 29800 ft | 454 kts | 279° |
| 2026-04-24 15:02 | 11.32912 | -69.26059 | 30135 ft | 453 kts | 279° |
| 2026-04-24 15:02 | 11.33511 | -69.29208 | 30487 ft | 451 kts | 279° |
| 2026-04-24 15:02 | 11.34102 | -69.32319 | 30834 ft | 450 kts | 279° |
| 2026-04-24 15:02 | 11.34698 | -69.35458 | 31125 ft | 450 kts | 279° |
| 2026-04-24 15:03 | 11.35290 | -69.38581 | 31442 ft | 449 kts | 279° |
| 2026-04-24 15:03 | 11.35873 | -69.41657 | 31748 ft | 448 kts | 279° |
| 2026-04-24 15:03 | 11.36462 | -69.44762 | 32044 ft | 447 kts | 279° |
| 2026-04-24 15:03 | 11.37057 | -69.47906 | 32352 ft | 447 kts | 278° |
| 2026-04-24 15:04 | 11.37649 | -69.51029 | 32684 ft | 445 kts | 278° |
| 2026-04-24 15:04 | 11.38233 | -69.54121 | 32979 ft | 445 kts | 278° |
| 2026-04-24 15:04 | 11.38816 | -69.57203 | 33326 ft | 444 kts | 278° |
| 2026-04-24 15:04 | 11.39396 | -69.60274 | 33656 ft | 443 kts | 278° |
| 2026-04-24 15:05 | 11.39982 | -69.63379 | 33966 ft | 442 kts | 278° |
| 2026-04-24 15:05 | 11.40561 | -69.66447 | 34277 ft | 441 kts | 278° |
| 2026-04-24 15:05 | 11.41145 | -69.69527 | 34600 ft | 441 kts | 279° |
| 2026-04-24 15:05 | 11.41962 | -69.72521 | 34867 ft | 442 kts | 284° |
| 2026-04-24 15:06 | 11.42829 | -69.75513 | 35199 ft | 440 kts | 283° |
| 2026-04-24 15:06 | 11.43684 | -69.78525 | 35489 ft | 440 kts | 283° |
| 2026-04-24 15:06 | 11.44529 | -69.81523 | 35740 ft | 440 kts | 283° |
| 2026-04-24 15:06 | 11.45371 | -69.84519 | 35887 ft | 442 kts | 283° |
| 2026-04-24 15:07 | 11.46220 | -69.87543 | 35974 ft | 445 kts | 283° |
| 2026-04-24 15:07 | 11.47937 | -69.93662 | 35963 ft | 454 kts | 283° |
| 2026-04-24 15:08 | 11.49675 | -69.99858 | 35955 ft | 461 kts | 283° |
| 2026-04-24 15:08 | 11.51451 | -70.06197 | 35949 ft | 466 kts | 283° |
| 2026-04-24 15:09 | 11.53238 | -70.12587 | 35953 ft | 470 kts | 283° |
| 2026-04-24 15:09 | 11.55028 | -70.18985 | 35953 ft | 473 kts | 283° |
| 2026-04-24 15:10 | 11.56825 | -70.25420 | 35954 ft | 473 kts | 283° |
| 2026-04-24 15:10 | 11.58632 | -70.31892 | 35959 ft | 471 kts | 283° |
| 2026-04-24 15:11 | 11.60780 | -70.38166 | 35950 ft | 476 kts | 296° |
| 2026-04-24 15:11 | 11.62685 | -70.40960 | 35985 ft | 480 kts | 308° |
| 2026-04-24 15:11 | 11.65106 | -70.43282 | 35957 ft | 486 kts | 321° |
| 2026-04-24 15:12 | 11.70959 | -70.46812 | 35963 ft | 487 kts | 325° |
| 2026-04-24 15:12 | 11.79403 | -70.52578 | 35963 ft | 485 kts | 323° |
| 2026-04-24 15:13 | 11.85005 | -70.56459 | 35963 ft | 486 kts | 323° |
| 2026-04-24 15:13 | 11.90611 | -70.60347 | 35962 ft | 485 kts | 323° |
| 2026-04-24 15:14 | 11.96196 | -70.64223 | 35965 ft | 485 kts | 323° |
| 2026-04-24 15:14 | 12.01803 | -70.68115 | 35971 ft | 486 kts | 323° |
| 2026-04-24 15:15 | 12.07385 | -70.71993 | 35971 ft | 485 kts | 323° |
| 2026-04-24 15:15 | 12.12956 | -70.75864 | 35962 ft | 485 kts | 323° |
| 2026-04-24 15:16 | 12.18545 | -70.79751 | 35952 ft | 485 kts | 323° |
| 2026-04-24 15:16 | 12.24146 | -70.83648 | 35947 ft | 485 kts | 323° |
| 2026-04-24 15:17 | 12.29727 | -70.87530 | 35946 ft | 485 kts | 323° |
| 2026-04-24 15:17 | 12.35308 | -70.91415 | 35946 ft | 484 kts | 323° |
| 2026-04-24 15:18 | 12.40834 | -70.95264 | 35946 ft | 484 kts | 323° |
| 2026-04-24 15:18 | 12.46441 | -70.99171 | 35946 ft | 484 kts | 322° |
| 2026-04-24 15:19 | 12.52004 | -71.02993 | 35944 ft | 484 kts | 324° |
| 2026-04-24 15:19 | 12.57660 | -71.06753 | 35946 ft | 484 kts | 324° |
| 2026-04-24 15:20 | 12.63295 | -71.10511 | 35946 ft | 484 kts | 324° |
| 2026-04-24 15:20 | 12.68943 | -71.14279 | 35944 ft | 483 kts | 324° |
| 2026-04-24 15:21 | 12.74600 | -71.18057 | 35942 ft | 484 kts | 324° |
| 2026-04-24 15:21 | 12.80226 | -71.21815 | 35942 ft | 483 kts | 323° |
| 2026-04-24 15:22 | 12.85882 | -71.25597 | 35950 ft | 483 kts | 323° |
| 2026-04-24 15:23 | 12.94336 | -71.31252 | 35954 ft | 484 kts | 323° |
| 2026-04-24 15:23 | 13.02773 | -71.36901 | 35964 ft | 484 kts | 323° |
| 2026-04-24 15:25 | 13.16906 | -71.46371 | 35957 ft | 484 kts | 323° |
| 2026-04-24 15:26 | 13.30997 | -71.55822 | 35962 ft | 484 kts | 323° |
| 2026-04-24 15:27 | 13.47933 | -71.67199 | 35967 ft | 485 kts | 323° |
| 2026-04-24 15:29 | 13.64897 | -71.78615 | 35965 ft | 485 kts | 322° |
| 2026-04-24 15:31 | 13.84719 | -71.91978 | 35969 ft | 484 kts | 322° |
| 2026-04-24 15:32 | 13.93311 | -72.02090 | 35962 ft | 471 kts | 300° |
| 2026-04-24 15:33 | 14.00761 | -72.13152 | 35968 ft | 469 kts | 300° |
| 2026-04-24 15:34 | 14.10079 | -72.26949 | 35964 ft | 469 kts | 300° |
| 2026-04-24 15:35 | 14.19338 | -72.40678 | 35961 ft | 467 kts | 300° |
| 2026-04-24 15:36 | 14.23057 | -72.46197 | 35959 ft | 466 kts | 300° |
| 2026-04-24 15:36 | 14.28601 | -72.54435 | 35958 ft | 466 kts | 300° |
| 2026-04-24 15:37 | 14.32281 | -72.59908 | 35958 ft | 466 kts | 300° |
| 2026-04-24 15:37 | 14.35967 | -72.65394 | 35958 ft | 464 kts | 300° |
| 2026-04-24 15:38 | 14.39649 | -72.70876 | 35963 ft | 464 kts | 300° |
| 2026-04-24 15:38 | 14.43335 | -72.76354 | 35967 ft | 464 kts | 300° |
| 2026-04-24 15:39 | 14.46999 | -72.81803 | 35961 ft | 463 kts | 300° |
| 2026-04-24 15:39 | 14.50674 | -72.87273 | 35959 ft | 462 kts | 300° |
| 2026-04-24 15:40 | 14.54336 | -72.92727 | 35951 ft | 461 kts | 300° |
| 2026-04-24 15:40 | 14.57991 | -72.98174 | 35945 ft | 462 kts | 300° |
| 2026-04-24 15:41 | 14.61645 | -73.03622 | 35945 ft | 461 kts | 300° |
| 2026-04-24 15:41 | 14.65286 | -73.09055 | 35946 ft | 461 kts | 300° |
| 2026-04-24 15:42 | 14.68924 | -73.14488 | 35946 ft | 460 kts | 300° |
| 2026-04-24 15:42 | 14.72574 | -73.19943 | 35946 ft | 459 kts | 300° |
| 2026-04-24 15:43 | 14.76198 | -73.25372 | 35942 ft | 459 kts | 298° |
| 2026-04-24 15:43 | 14.79608 | -73.30960 | 35943 ft | 458 kts | 297° |
| 2026-04-24 15:44 | 14.83010 | -73.36513 | 35945 ft | 457 kts | 297° |
| 2026-04-24 15:44 | 14.86397 | -73.42042 | 35945 ft | 457 kts | 297° |
| 2026-04-24 15:45 | 14.90051 | -73.47435 | 35949 ft | 458 kts | 300° |
| 2026-04-24 15:45 | 14.93749 | -73.52818 | 35945 ft | 457 kts | 300° |
| 2026-04-24 15:46 | 14.97435 | -73.58201 | 35943 ft | 458 kts | 300° |
| 2026-04-24 15:46 | 15.01130 | -73.63601 | 35941 ft | 459 kts | 300° |
| 2026-04-24 15:47 | 15.04809 | -73.68982 | 35954 ft | 457 kts | 300° |
| 2026-04-24 15:47 | 15.08473 | -73.74343 | 35956 ft | 456 kts | 300° |
| 2026-04-24 15:48 | 15.12128 | -73.79696 | 35945 ft | 457 kts | 300° |
| 2026-04-24 15:48 | 15.15802 | -73.85081 | 35946 ft | 455 kts | 300° |
| 2026-04-24 15:49 | 15.19466 | -73.90455 | 35947 ft | 456 kts | 300° |
| 2026-04-24 15:49 | 15.23114 | -73.95808 | 35950 ft | 455 kts | 300° |
| 2026-04-24 15:50 | 15.26772 | -74.01202 | 35958 ft | 456 kts | 298° |
| 2026-04-24 15:50 | 15.30330 | -74.06599 | 35965 ft | 456 kts | 299° |
| 2026-04-24 15:51 | 15.33918 | -74.12035 | 35963 ft | 456 kts | 298° |
| 2026-04-24 15:51 | 15.37516 | -74.17487 | 35961 ft | 456 kts | 298° |
| 2026-04-24 15:52 | 15.41089 | -74.22907 | 35961 ft | 455 kts | 299° |
| 2026-04-24 15:52 | 15.44656 | -74.28321 | 35962 ft | 455 kts | 299° |
| 2026-04-24 15:53 | 15.48233 | -74.33753 | 35963 ft | 455 kts | 298° |
| 2026-04-24 15:53 | 15.51797 | -74.39170 | 35962 ft | 455 kts | 299° |
| 2026-04-24 15:54 | 15.55365 | -74.44598 | 35961 ft | 454 kts | 298° |
| 2026-04-24 15:54 | 15.58934 | -74.50030 | 35960 ft | 454 kts | 298° |
| 2026-04-24 15:55 | 15.62481 | -74.55434 | 35960 ft | 454 kts | 298° |
| 2026-04-24 15:55 | 15.66041 | -74.60859 | 35958 ft | 454 kts | 298° |
| 2026-04-24 15:56 | 15.69596 | -74.66283 | 35964 ft | 453 kts | 298° |
| 2026-04-24 15:56 | 15.73150 | -74.71707 | 35971 ft | 454 kts | 298° |
| 2026-04-24 15:57 | 15.76673 | -74.77090 | 35970 ft | 453 kts | 298° |
| 2026-04-24 15:57 | 15.80224 | -74.82517 | 35969 ft | 452 kts | 298° |
| 2026-04-24 15:58 | 15.83771 | -74.87946 | 35969 ft | 453 kts | 298° |
| 2026-04-24 15:58 | 15.87307 | -74.93359 | 35970 ft | 452 kts | 298° |
| 2026-04-24 15:59 | 15.90846 | -74.98782 | 35970 ft | 452 kts | 298° |
| 2026-04-24 15:59 | 15.94376 | -75.04193 | 35971 ft | 452 kts | 298° |
| 2026-04-24 16:00 | 15.97900 | -75.09599 | 35968 ft | 451 kts | 298° |
| 2026-04-24 16:00 | 16.01427 | -75.15015 | 35968 ft | 451 kts | 298° |
| 2026-04-24 16:01 | 16.04952 | -75.20433 | 35968 ft | 451 kts | 298° |
| 2026-04-24 16:01 | 16.08482 | -75.25861 | 35970 ft | 451 kts | 298° |
| 2026-04-24 16:02 | 16.11996 | -75.31268 | 35957 ft | 450 kts | 298° |
| 2026-04-24 16:02 | 16.15498 | -75.36662 | 35959 ft | 451 kts | 298° |
| 2026-04-24 16:03 | 16.19018 | -75.42086 | 35957 ft | 451 kts | 298° |
| 2026-04-24 16:03 | 16.22543 | -75.47523 | 35960 ft | 452 kts | 298° |
| 2026-04-24 16:04 | 16.26042 | -75.52923 | 35961 ft | 451 kts | 298° |
| 2026-04-24 16:04 | 16.29538 | -75.58324 | 35958 ft | 450 kts | 298° |
| 2026-04-24 16:05 | 16.34812 | -75.66477 | 35964 ft | 450 kts | 297° |
| 2026-04-24 16:06 | 16.40059 | -75.74599 | 35962 ft | 449 kts | 297° |
| 2026-04-24 16:07 | 16.45280 | -75.82690 | 35951 ft | 449 kts | 297° |
| 2026-04-24 16:07 | 16.50514 | -75.90810 | 35944 ft | 449 kts | 298° |
| 2026-04-24 16:08 | 16.55733 | -75.98917 | 35950 ft | 449 kts | 297° |
| 2026-04-24 16:09 | 16.60953 | -76.07033 | 35946 ft | 448 kts | 298° |
| 2026-04-24 16:09 | 16.64425 | -76.12437 | 35945 ft | 447 kts | 297° |
| 2026-04-24 16:11 | 16.73055 | -76.25888 | 35945 ft | 446 kts | 297° |
| 2026-04-24 16:11 | 16.76489 | -76.31248 | 35943 ft | 445 kts | 297° |
| 2026-04-24 16:12 | 16.81665 | -76.39333 | 35945 ft | 443 kts | 297° |
| 2026-04-24 16:13 | 16.86788 | -76.47344 | 35938 ft | 443 kts | 297° |
| 2026-04-24 16:14 | 16.93625 | -76.58051 | 35940 ft | 442 kts | 297° |
| 2026-04-24 16:14 | 16.98747 | -76.66083 | 35945 ft | 441 kts | 297° |
| 2026-04-24 16:15 | 17.03850 | -76.74094 | 35969 ft | 441 kts | 297° |
| 2026-04-24 16:16 | 17.08959 | -76.82125 | 35971 ft | 441 kts | 297° |
| 2026-04-24 16:17 | 17.17426 | -76.95455 | 35965 ft | 440 kts | 296° |
| 2026-04-24 16:18 | 17.24221 | -77.06172 | 35965 ft | 440 kts | 296° |
| 2026-04-24 16:19 | 17.29279 | -77.14159 | 35962 ft | 440 kts | 296° |
| 2026-04-24 16:20 | 17.34358 | -77.22189 | 35960 ft | 442 kts | 296° |
| 2026-04-24 16:20 | 17.39463 | -77.30267 | 35962 ft | 440 kts | 296° |
| 2026-04-24 16:21 | 17.44515 | -77.38275 | 35960 ft | 441 kts | 296° |
| 2026-04-24 16:22 | 17.47920 | -77.43675 | 35957 ft | 441 kts | 296° |
| 2026-04-24 16:22 | 17.53000 | -77.51741 | 35958 ft | 442 kts | 296° |
| 2026-04-24 16:23 | 17.56367 | -77.57091 | 35959 ft | 443 kts | 296° |
| 2026-04-24 16:24 | 17.61458 | -77.65189 | 35957 ft | 443 kts | 296° |
| 2026-04-24 16:24 | 17.64843 | -77.70581 | 35966 ft | 442 kts | 296° |
| 2026-04-24 16:25 | 17.68211 | -77.75946 | 35969 ft | 442 kts | 296° |
| 2026-04-24 16:25 | 17.71592 | -77.81338 | 35971 ft | 440 kts | 296° |
| 2026-04-24 16:26 | 17.76634 | -77.89388 | 35971 ft | 440 kts | 296° |
| 2026-04-24 16:27 | 17.81692 | -77.97474 | 35964 ft | 440 kts | 296° |
| 2026-04-24 16:27 | 17.84928 | -78.02650 | 35969 ft | 439 kts | 296° |
| 2026-04-24 16:28 | 17.87327 | -78.06391 | 35972 ft | 440 kts | 297° |
| 2026-04-24 16:28 | 17.92885 | -78.14944 | 35961 ft | 441 kts | 297° |
| 2026-04-24 16:29 | 17.96761 | -78.20918 | 35953 ft | 441 kts | 297° |
| 2026-04-24 16:30 | 18.04418 | -78.32741 | 35943 ft | 440 kts | 297° |
| 2026-04-24 16:30 | 18.08231 | -78.38633 | 35944 ft | 440 kts | 297° |
| 2026-04-24 16:31 | 18.12045 | -78.44535 | 35934 ft | 440 kts | 297° |
| 2026-04-24 16:31 | 18.15914 | -78.50526 | 35938 ft | 440 kts | 297° |
| 2026-04-24 16:32 | 18.19715 | -78.56419 | 35942 ft | 440 kts | 297° |
| 2026-04-24 16:32 | 18.23566 | -78.62393 | 35940 ft | 440 kts | 298° |
| 2026-04-24 16:33 | 18.27360 | -78.68284 | 35954 ft | 438 kts | 297° |
| 2026-04-24 16:33 | 18.31183 | -78.74227 | 35952 ft | 439 kts | 297° |
| 2026-04-24 16:34 | 18.34924 | -78.80045 | 35949 ft | 439 kts | 298° |
| 2026-04-24 16:34 | 18.38691 | -78.85912 | 35949 ft | 439 kts | 298° |
| 2026-04-24 16:35 | 18.42451 | -78.91772 | 35949 ft | 439 kts | 298° |
| 2026-04-24 16:35 | 18.46251 | -78.97700 | 35949 ft | 439 kts | 298° |
| 2026-04-24 16:36 | 18.50013 | -79.03574 | 35944 ft | 439 kts | 298° |
| 2026-04-24 16:36 | 18.53789 | -79.09474 | 35938 ft | 438 kts | 298° |
| 2026-04-24 16:37 | 18.57447 | -79.15196 | 35936 ft | 437 kts | 298° |
| 2026-04-24 16:37 | 18.61146 | -79.20988 | 35936 ft | 437 kts | 298° |
| 2026-04-24 16:38 | 18.64905 | -79.26878 | 35938 ft | 436 kts | 298° |
| 2026-04-24 16:38 | 18.68601 | -79.32677 | 35941 ft | 436 kts | 298° |
| 2026-04-24 16:39 | 18.72370 | -79.38594 | 35939 ft | 436 kts | 299° |
| 2026-04-24 16:39 | 18.76096 | -79.44450 | 35942 ft | 437 kts | 299° |
| 2026-04-24 16:40 | 18.79835 | -79.50332 | 35945 ft | 436 kts | 299° |
| 2026-04-24 16:40 | 18.83588 | -79.56239 | 35942 ft | 435 kts | 299° |
| 2026-04-24 16:41 | 18.87294 | -79.62080 | 35942 ft | 437 kts | 300° |
| 2026-04-24 16:41 | 18.90905 | -79.67866 | 35948 ft | 432 kts | 294° |
| 2026-04-24 16:42 | 18.92015 | -79.71106 | 35960 ft | 424 kts | 279° |
| 2026-04-24 16:42 | 18.92668 | -79.74471 | 35969 ft | 427 kts | 280° |
| 2026-04-24 16:42 | 18.94176 | -79.81248 | 35954 ft | 427 kts | 281° |
| 2026-04-24 16:43 | 18.95683 | -79.87893 | 35947 ft | 426 kts | 281° |
| 2026-04-24 16:43 | 18.97208 | -79.94607 | 35934 ft | 427 kts | 281° |
| 2026-04-24 16:44 | 18.98700 | -80.01190 | 35928 ft | 427 kts | 282° |
| 2026-04-24 16:44 | 19.00219 | -80.07903 | 35930 ft | 426 kts | 282° |
| 2026-04-24 16:45 | 19.01706 | -80.14487 | 35927 ft | 425 kts | 282° |
| 2026-04-24 16:45 | 19.03198 | -80.21101 | 35927 ft | 425 kts | 282° |
| 2026-04-24 16:46 | 19.04699 | -80.27777 | 35933 ft | 425 kts | 282° |
| 2026-04-24 16:46 | 19.06171 | -80.34328 | 35943 ft | 425 kts | 283° |
| 2026-04-24 16:47 | 19.07669 | -80.41007 | 35945 ft | 425 kts | 283° |
| 2026-04-24 16:47 | 19.09156 | -80.47651 | 35941 ft | 424 kts | 283° |
| 2026-04-24 16:48 | 19.10661 | -80.54385 | 35942 ft | 423 kts | 283° |
| 2026-04-24 16:48 | 19.12177 | -80.61183 | 35941 ft | 425 kts | 284° |
| 2026-04-24 16:49 | 19.13682 | -80.67946 | 35956 ft | 424 kts | 284° |
| 2026-04-24 16:49 | 19.15168 | -80.74631 | 35949 ft | 424 kts | 284° |
| 2026-04-24 16:50 | 19.16660 | -80.81357 | 35943 ft | 424 kts | 284° |
| 2026-04-24 16:50 | 19.18129 | -80.87997 | 35936 ft | 423 kts | 284° |
| 2026-04-24 16:51 | 19.19602 | -80.94659 | 35929 ft | 426 kts | 285° |
| 2026-04-24 16:51 | 19.21072 | -81.01325 | 35927 ft | 425 kts | 285° |
| 2026-04-24 16:52 | 19.22523 | -81.07908 | 35928 ft | 424 kts | 285° |
| 2026-04-24 16:52 | 19.23977 | -81.14524 | 35936 ft | 426 kts | 285° |
| 2026-04-24 16:53 | 19.25412 | -81.21068 | 35935 ft | 423 kts | 285° |
| 2026-04-24 16:53 | 19.26839 | -81.27583 | 35946 ft | 425 kts | 285° |
| 2026-04-24 16:54 | 19.28233 | -81.33962 | 35952 ft | 423 kts | 285° |
| 2026-04-24 16:54 | 19.29722 | -81.40464 | 35950 ft | 423 kts | 287° |
| 2026-04-24 16:55 | 19.31294 | -81.47006 | 35944 ft | 424 kts | 287° |
| 2026-04-24 16:55 | 19.32838 | -81.53458 | 35935 ft | 423 kts | 287° |
| 2026-04-24 16:56 | 19.34404 | -81.60014 | 35932 ft | 422 kts | 287° |
| 2026-04-24 16:56 | 19.35968 | -81.66569 | 35940 ft | 424 kts | 287° |
| 2026-04-24 16:57 | 19.37562 | -81.73264 | 35932 ft | 424 kts | 287° |
| 2026-04-24 16:57 | 19.39126 | -81.79837 | 35928 ft | 422 kts | 287° |
| 2026-04-24 16:58 | 19.40703 | -81.86485 | 35927 ft | 424 kts | 288° |
| 2026-04-24 16:58 | 19.42252 | -81.93025 | 35924 ft | 424 kts | 288° |
| 2026-04-24 16:59 | 19.43832 | -81.99706 | 35925 ft | 424 kts | 288° |
| 2026-04-24 17:00 | 19.46162 | -82.09602 | 35926 ft | 423 kts | 288° |
| 2026-04-24 17:00 | 19.48486 | -82.19534 | 35920 ft | 423 kts | 288° |
| 2026-04-24 17:01 | 19.50804 | -82.29462 | 35921 ft | 421 kts | 288° |
| 2026-04-24 17:02 | 19.53135 | -82.39475 | 35933 ft | 422 kts | 288° |
| 2026-04-24 17:02 | 19.54678 | -82.46123 | 35930 ft | 421 kts | 288° |
| 2026-04-24 17:03 | 19.56968 | -82.56003 | 35925 ft | 421 kts | 289° |
| 2026-04-24 17:04 | 19.58483 | -82.62555 | 35919 ft | 422 kts | 289° |
| 2026-04-24 17:04 | 19.60791 | -82.72554 | 35922 ft | 420 kts | 288° |
| 2026-04-24 17:05 | 19.62313 | -82.79163 | 35922 ft | 420 kts | 288° |
| 2026-04-24 17:06 | 19.64597 | -82.89107 | 35922 ft | 420 kts | 288° |
| 2026-04-24 17:06 | 19.66839 | -82.98893 | 35919 ft | 421 kts | 289° |
| 2026-04-24 17:07 | 19.68359 | -83.05544 | 35919 ft | 421 kts | 289° |
| 2026-04-24 17:08 | 19.71363 | -83.18716 | 35916 ft | 420 kts | 289° |
| 2026-04-24 17:08 | 19.72855 | -83.25275 | 35914 ft | 419 kts | 289° |
| 2026-04-24 17:09 | 19.75852 | -83.38493 | 35915 ft | 419 kts | 289° |
| 2026-04-24 17:10 | 19.78822 | -83.51637 | 35913 ft | 419 kts | 288° |
| 2026-04-24 17:12 | 19.84743 | -83.77987 | 35920 ft | 418 kts | 289° |
| 2026-04-24 18:54 | 20.21005 | -97.64023 | 26632 ft | 446 kts | 265° |
| 2026-04-24 18:55 | 20.20154 | -97.70898 | 25602 ft | 451 kts | 264° |
| 2026-04-24 18:55 | 20.19705 | -97.74522 | 25065 ft | 453 kts | 264° |
| 2026-04-24 18:55 | 20.19262 | -97.78094 | 24540 ft | 456 kts | 264° |
| 2026-04-24 18:56 | 20.18822 | -97.81627 | 23917 ft | 450 kts | 264° |
| 2026-04-24 18:56 | 20.18378 | -97.85196 | 23299 ft | 447 kts | 264° |
| 2026-04-24 18:56 | 20.17942 | -97.88684 | 22752 ft | 442 kts | 264° |
| 2026-04-24 18:56 | 20.17512 | -97.92116 | 22207 ft | 429 kts | 264° |
| 2026-04-24 18:57 | 20.17103 | -97.95380 | 21652 ft | 415 kts | 265° |
| 2026-04-24 18:57 | 20.16706 | -97.98554 | 21122 ft | 407 kts | 265° |
| 2026-04-24 18:57 | 20.16316 | -98.01669 | 20619 ft | 405 kts | 264° |
| 2026-04-24 18:57 | 20.15927 | -98.04764 | 20124 ft | 403 kts | 264° |
| 2026-04-24 18:58 | 20.15543 | -98.07816 | 19641 ft | 402 kts | 264° |
| 2026-04-24 18:58 | 20.15159 | -98.10847 | 19133 ft | 380 kts | 264° |
| 2026-04-24 18:58 | 20.14801 | -98.13682 | 18604 ft | 358 kts | 264° |
| 2026-04-24 18:58 | 20.14453 | -98.16441 | 18072 ft | 340 kts | 264° |
| 2026-04-24 18:59 | 20.14126 | -98.19019 | 17559 ft | 325 kts | 264° |
| 2026-04-24 18:59 | 20.13811 | -98.21509 | 17068 ft | 318 kts | 264° |
| 2026-04-24 18:59 | 20.13516 | -98.23843 | 16617 ft | 315 kts | 264° |
| 2026-04-24 18:59 | 20.13234 | -98.26068 | 16185 ft | 314 kts | 264° |
| 2026-04-24 19:00 | 20.12945 | -98.28347 | 15733 ft | 312 kts | 264° |
| 2026-04-24 19:00 | 20.12655 | -98.30740 | 15263 ft | 309 kts | 266° |
| 2026-04-24 19:00 | 20.12458 | -98.33188 | 14807 ft | 308 kts | 265° |
| 2026-04-24 19:00 | 20.12227 | -98.35586 | 14312 ft | 304 kts | 265° |
| 2026-04-24 19:01 | 20.12006 | -98.37954 | 14090 ft | 294 kts | 265° |
| 2026-04-24 19:01 | 20.11791 | -98.40283 | 14149 ft | 298 kts | 265° |
| 2026-04-24 19:01 | 20.11574 | -98.42635 | 14103 ft | 300 kts | 265° |
| 2026-04-24 19:01 | 20.11354 | -98.45014 | 14083 ft | 300 kts | 265° |
| 2026-04-24 19:02 | 20.11210 | -98.46565 | 14084 ft | 295 kts | 265° |
| 2026-04-24 19:02 | 20.10941 | -98.49647 | 14103 ft | 294 kts | 269° |
| 2026-04-24 19:02 | 20.11317 | -98.51897 | 14127 ft | 293 kts | 295° |
| 2026-04-24 19:02 | 20.12623 | -98.53721 | 14137 ft | 296 kts | 321° |
| 2026-04-24 19:03 | 20.14523 | -98.55022 | 14143 ft | 297 kts | 327° |
| 2026-04-24 19:03 | 20.16334 | -98.56309 | 14098 ft | 288 kts | 324° |
| 2026-04-24 19:03 | 20.18118 | -98.57646 | 14074 ft | 284 kts | 323° |
| 2026-04-24 19:03 | 20.19844 | -98.58976 | 14091 ft | 283 kts | 321° |
| 2026-04-24 19:04 | 20.21267 | -98.60686 | 14082 ft | 282 kts | 300° |
| 2026-04-24 19:04 | 20.22337 | -98.62712 | 14094 ft | 284 kts | 300° |
| 2026-04-24 19:04 | 20.23445 | -98.64710 | 14068 ft | 283 kts | 300° |
| 2026-04-24 19:04 | 20.24511 | -98.66608 | 14054 ft | 282 kts | 300° |
| 2026-04-24 19:05 | 20.25598 | -98.68527 | 14065 ft | 282 kts | 300° |
| 2026-04-24 19:05 | 20.26631 | -98.70540 | 14061 ft | 283 kts | 288° |
| 2026-04-24 19:05 | 20.27012 | -98.72767 | 14093 ft | 283 kts | 276° |
| 2026-04-24 19:05 | 20.27281 | -98.74997 | 14082 ft | 282 kts | 278° |
| 2026-04-24 19:06 | 20.27591 | -98.77262 | 14089 ft | 283 kts | 278° |
| 2026-04-24 19:06 | 20.27906 | -98.79486 | 14083 ft | 284 kts | 278° |
| 2026-04-24 19:06 | 20.28236 | -98.81776 | 14049 ft | 281 kts | 278° |
| 2026-04-24 19:06 | 20.28195 | -98.84045 | 14068 ft | 282 kts | 257° |
| 2026-04-24 19:07 | 20.27625 | -98.86247 | 14109 ft | 284 kts | 256° |
| 2026-04-24 19:07 | 20.27095 | -98.88468 | 14093 ft | 284 kts | 257° |
| 2026-04-24 19:07 | 20.26534 | -98.90655 | 14091 ft | 284 kts | 249° |
| 2026-04-24 19:07 | 20.25313 | -98.92509 | 14088 ft | 286 kts | 221° |
| 2026-04-24 19:08 | 20.23344 | -98.93576 | 13970 ft | 293 kts | 194° |
| 2026-04-24 19:08 | 20.21161 | -98.93577 | 13704 ft | 293 kts | 167° |
| 2026-04-24 19:08 | 20.19177 | -98.92479 | 13447 ft | 290 kts | 141° |
| 2026-04-24 19:08 | 20.17502 | -98.91024 | 13224 ft | 283 kts | 153° |
| 2026-04-24 19:09 | 20.15572 | -98.90127 | 13009 ft | 277 kts | 159° |
| 2026-04-24 19:09 | 20.13658 | -98.89218 | 12767 ft | 274 kts | 157° |
| 2026-04-24 19:09 | 20.11821 | -98.88335 | 12532 ft | 270 kts | 157° |
| 2026-04-24 19:09 | 20.09975 | -98.87444 | 12292 ft | 268 kts | 157° |
| 2026-04-24 19:10 | 20.08170 | -98.86572 | 12124 ft | 261 kts | 157° |
| 2026-04-24 19:10 | 20.06360 | -98.85698 | 12157 ft | 259 kts | 157° |
| 2026-04-24 19:10 | 20.04587 | -98.84840 | 12153 ft | 261 kts | 157° |
| 2026-04-24 19:10 | 20.02772 | -98.83965 | 12166 ft | 262 kts | 157° |
| 2026-04-24 19:11 | 20.00991 | -98.83106 | 12092 ft | 264 kts | 157° |
| 2026-04-24 19:11 | 19.99159 | -98.82427 | 11907 ft | 260 kts | 176° |
| 2026-04-24 19:11 | 19.97320 | -98.82707 | 11781 ft | 255 kts | 207° |
| 2026-04-24 19:11 | 19.95896 | -98.83935 | 11672 ft | 253 kts | 238° |
| 2026-04-24 19:12 | 19.95111 | -98.85727 | 11541 ft | 253 kts | 248° |
| 2026-04-24 19:12 | 19.94276 | -98.87532 | 11353 ft | 253 kts | 243° |
| 2026-04-24 19:12 | 19.93386 | -98.89307 | 11169 ft | 248 kts | 243° |
| 2026-04-24 19:12 | 19.92514 | -98.91019 | 11125 ft | 239 kts | 243° |
| 2026-04-24 19:13 | 19.91948 | -98.92130 | 11137 ft | 237 kts | 243° |
| 2026-04-24 19:13 | 19.90813 | -98.94350 | 11109 ft | 240 kts | 243° |
| 2026-04-24 19:13 | 19.90008 | -98.96048 | 11128 ft | 239 kts | 250° |
| 2026-04-24 19:13 | 19.89419 | -98.97759 | 11114 ft | 239 kts | 251° |
| 2026-04-24 19:14 | 19.88801 | -98.99466 | 11100 ft | 241 kts | 251° |
| 2026-04-24 19:14 | 19.88205 | -99.01112 | 11094 ft | 241 kts | 250° |
| 2026-04-24 19:14 | 19.87613 | -99.02735 | 11099 ft | 240 kts | 250° |
| 2026-04-24 19:14 | 19.87002 | -99.04412 | 11105 ft | 239 kts | 250° |
| 2026-04-24 19:15 | 19.86358 | -99.06176 | 11100 ft | 240 kts | 250° |
| 2026-04-24 19:15 | 19.85732 | -99.07892 | 11086 ft | 240 kts | 250° |
| 2026-04-24 19:15 | 19.85096 | -99.09632 | 11089 ft | 238 kts | 251° |
| 2026-04-24 19:15 | 19.84495 | -99.11343 | 11110 ft | 239 kts | 253° |
| 2026-04-24 19:16 | 19.83410 | -99.14882 | 11119 ft | 237 kts | 253° |
| 2026-04-24 19:16 | 19.82860 | -99.16648 | 11106 ft | 241 kts | 253° |
| 2026-04-24 19:16 | 19.82318 | -99.18390 | 11112 ft | 241 kts | 254° |
| 2026-04-24 19:17 | 19.81722 | -99.20132 | 10927 ft | 245 kts | 243° |
| 2026-04-24 19:17 | 19.80534 | -99.21499 | 10686 ft | 243 kts | 211° |
| 2026-04-24 19:17 | 19.78928 | -99.21986 | 10482 ft | 237 kts | 179° |
| 2026-04-24 19:17 | 19.77254 | -99.21599 | 10279 ft | 229 kts | 165° |
| 2026-04-24 19:18 | 19.75664 | -99.21276 | 10078 ft | 224 kts | 175° |
| 2026-04-24 19:18 | 19.74084 | -99.21083 | 9872 ft | 227 kts | 175° |
| 2026-04-24 19:18 | 19.72487 | -99.20901 | 9685 ft | 226 kts | 176° |
| 2026-04-24 19:18 | 19.70936 | -99.20732 | 9613 ft | 219 kts | 176° |
| 2026-04-24 19:19 | 19.69473 | -99.20576 | 9465 ft | 221 kts | 176° |
| 2026-04-24 19:19 | 19.67974 | -99.20087 | 9074 ft | 217 kts | 149° |
| 2026-04-24 19:19 | 19.66700 | -99.19183 | 8974 ft | 197 kts | 149° |
| 2026-04-24 19:19 | 19.65556 | -99.18265 | 8998 ft | 195 kts | 129° |
| 2026-04-24 19:20 | 19.65101 | -99.16888 | 8975 ft | 189 kts | 86° |
| 2026-04-24 19:20 | 19.65442 | -99.15527 | 9019 ft | 185 kts | 70° |
| 2026-04-24 19:20 | 19.65781 | -99.14204 | 8995 ft | 182 kts | 77° |
| 2026-04-24 19:20 | 19.66083 | -99.12873 | 9006 ft | 176 kts | 69° |
| 2026-04-24 19:21 | 19.66828 | -99.11816 | 8993 ft | 165 kts | 43° |
| 2026-04-24 19:21 | 19.67652 | -99.10902 | 8948 ft | 164 kts | 48° |
| 2026-04-24 19:21 | 19.68432 | -99.09965 | 8710 ft | 160 kts | 50° |
| 2026-04-24 19:21 | 19.69200 | -99.09034 | 8508 ft | 159 kts | 50° |
| 2026-04-24 19:22 | 19.69715 | -99.08410 | 8384 ft | 158 kts | 49° |
| 2026-04-24 19:22 | 19.70733 | -99.07178 | 8118 ft | 158 kts | 50° |
| 2026-04-24 19:22 | 19.71492 | -99.06261 | 7924 ft | 156 kts | 50° |
| 2026-04-24 19:22 | 19.72250 | -99.05350 | 7695 ft | 156 kts | 51° |
| 2026-04-24 19:23 | 19.72990 | -99.04458 | 7494 ft | 154 kts | 49° |
| 2026-04-24 19:23 | 19.73732 | -99.03571 | 7380 ft | 144 kts | 50° |
| 2026-04-24 19:23 | 19.74286 | -99.02897 | 7380 ft | 87 kts | 48° |
| 2026-04-24 19:23 | 19.74572 | -99.02546 | 7382 ft | 33 kts | 49° |
| 2026-04-24 19:24 | 19.74676 | -99.02422 | 7382 ft | 32 kts | 49° |
| 2026-04-24 19:24 | 19.74854 | -99.02190 | 7383 ft | 32 kts | 62° |
| 2026-04-24 19:24 | 19.74909 | -99.02023 | 7383 ft | 7 kts | 79° |
| 2026-04-24 19:24 | 19.74909 | -99.02022 | 7383 ft | 0 kts | 79° |
| 2026-04-24 19:25 | 19.74910 | -99.02018 | 7383 ft | 0 kts | 79° |
| 2026-04-24 19:25 | 19.74912 | -99.01997 | 7383 ft | 5 kts | 86° |
| 2026-04-24 19:25 | 19.74894 | -99.01954 | 7383 ft | 8 kts | 152° |
| 2026-04-24 19:26 | 19.74832 | -99.01972 | 7383 ft | 11 kts | 218° |
| 2026-04-24 19:26 | 19.74767 | -99.02042 | 7382 ft | 14 kts | 228° |
| 2026-04-24 19:26 | 19.74692 | -99.02133 | 7382 ft | 14 kts | 229° |
| 2026-04-24 19:26 | 19.74594 | -99.02136 | 7382 ft | 16 kts | 147° |
| 2026-04-24 19:27 | 19.74492 | -99.02048 | 7382 ft | 19 kts | 139° |
| 2026-04-24 19:27 | 19.74380 | -99.01945 | 7381 ft | 21 kts | 139° |
| 2026-04-24 19:27 | 19.74274 | -99.01848 | 7381 ft | 18 kts | 139° |
| 2026-04-24 19:27 | 19.74163 | -99.01832 | 7381 ft | 18 kts | 219° |
| 2026-04-24 19:28 | 19.74069 | -99.01937 | 7381 ft | 20 kts | 228° |
| 2026-04-24 19:28 | 19.73972 | -99.02052 | 7380 ft | 21 kts | 229° |
| 2026-04-24 19:28 | 19.73898 | -99.02147 | 7380 ft | 0 kts | 229° |
| 2026-04-24 19:28 | 19.73895 | -99.02151 | 7380 ft | 3 kts | 228° |
| 2026-04-24 19:29 | 19.73800 | -99.02249 | 7380 ft | 11 kts | 206° |
| 2026-04-24 19:29 | 19.73720 | -99.02245 | 7379 ft | 10 kts | 153° |
| 2026-04-24 19:29 | 19.73677 | -99.02212 | 7380 ft | 4 kts | 140° |
| 2026-04-24 19:30 | 19.73653 | -99.02191 | 7380 ft | 0 kts | 138° |